createdAt,value
2019-04-03T04:40:45.179Z,50.40
2019-04-03T04:43:16.814Z,49.89
2019-04-03T04:45:48.168Z,50.43
2019-04-03T04:48:20.724Z,50.12
2019-04-03T04:53:17.545Z,47.33
2019-04-03T04:55:49.046Z,46.74
2019-04-03T04:58:20.276Z,45.93
2019-04-03T05:00:53.682Z,45.35
2019-04-03T05:03:24.600Z,45.21
2019-04-03T05:05:58.230Z,45.30
2019-04-03T05:08:29.272Z,44.55
2019-04-03T05:11:01.027Z,44.19
2019-04-03T05:13:32.992Z,44.30
2019-04-03T05:16:04.232Z,44.50
2019-04-03T05:18:35.691Z,44.22
2019-04-03T05:21:08.071Z,44.32
2019-04-03T05:23:39.559Z,44.84
2019-04-03T05:26:11.041Z,45.08
2019-04-03T05:28:53.542Z,45.68
2019-04-03T05:31:15.480Z,45.49
2019-04-03T05:33:46.964Z,45.12
2019-04-03T05:36:18.511Z,44.88
2019-04-03T05:38:52.494Z,44.16
2019-04-03T05:41:23.457Z,43.40
2019-04-03T05:43:54.686Z,42.23
2019-04-03T05:46:27.272Z,41.50
2019-04-03T05:48:59.067Z,41.55
2019-04-03T05:51:30.419Z,40.95
2019-04-03T05:54:01.596Z,40.23
2019-04-03T05:56:33.079Z,39.49
2019-04-03T05:59:04.763Z,39.48
2019-04-03T06:01:36.289Z,39.20
2019-04-03T06:04:09.720Z,38.26
2019-04-03T06:06:40.642Z,37.97
2019-04-03T06:09:12.366Z,37.47
2019-04-03T06:11:43.940Z,37.30
2019-04-03T06:14:15.229Z,37.13
2019-04-03T06:26:03.160Z,35.81
2019-04-03T06:28:34.514Z,35.16
2019-04-03T06:31:08.315Z,34.38
2019-04-03T06:33:39.043Z,34.36
2019-04-03T06:36:10.727Z,33.72
2019-04-03T06:38:42.120Z,33.09
2019-04-03T06:41:13.869Z,33.78
2019-04-03T06:43:45.414Z,32.74
2019-04-03T06:46:17.007Z,32.53
2019-04-03T06:48:48.602Z,32.51
2019-04-03T06:51:20.162Z,31.66
2019-04-03T06:53:51.530Z,32.18
2019-04-03T06:56:23.275Z,32.33
2019-04-03T06:58:55.021Z,32.08
2019-04-03T07:01:26.431Z,32.35
2019-04-03T07:03:58.166Z,32.14
2019-04-03T07:06:29.703Z,31.20
2019-04-03T07:09:01.197Z,30.77
2019-04-03T07:11:33.837Z,30.12
2019-04-03T07:14:05.753Z,31.08
2019-04-03T07:16:38.501Z,30.36
2019-04-03T07:34:54.430Z,29.92
2019-04-03T07:37:26.102Z,30.56
2019-04-03T08:33:32.827Z,31.19
2019-04-03T08:36:06.721Z,31.07
2019-04-03T08:38:38.712Z,31.34
2019-04-03T08:41:10.263Z,31.59
2019-04-03T08:43:42.211Z,30.71
2019-04-03T08:46:13.723Z,31.25
2019-04-03T08:48:45.228Z,31.20
2019-04-03T08:51:16.796Z,31.05
2019-04-03T08:53:48.242Z,30.73
2019-04-03T08:56:19.793Z,30.34
2019-04-03T08:58:51.444Z,30.14
2019-04-03T09:01:22.774Z,30.09
2019-04-03T09:10:14.834Z,29.83
2019-04-03T09:12:46.025Z,29.95
2019-04-03T09:15:17.955Z,30.55
2019-04-03T09:17:49.154Z,31.11
2019-04-03T10:47:39.376Z,28.61
2019-04-03T10:49:59.059Z,28.20
2019-04-03T10:52:30.572Z,28.54
2019-04-03T10:55:02.012Z,30.00
2019-04-03T10:57:34.755Z,29.93
2019-04-03T11:00:08.888Z,29.61
2019-04-03T11:02:40.255Z,29.46
2019-04-03T11:05:11.989Z,29.89
2019-04-03T11:07:43.817Z,30.14
2019-04-03T11:10:15.516Z,27.85
2019-04-03T11:12:46.870Z,27.46
2019-04-03T11:15:18.479Z,27.49
2019-04-03T11:17:50.515Z,27.31
2019-04-03T11:20:22.044Z,27.39
2019-04-03T11:23:03.988Z,27.14
2019-04-03T11:25:26.612Z,27.52
2019-04-03T11:27:58.274Z,27.68
2019-04-03T11:30:29.688Z,27.78
2019-04-03T11:33:00.887Z,27.73
2019-04-03T15:14:06.337Z,29.74
2019-04-03T15:16:40.127Z,29.65
2019-04-03T15:19:14.107Z,29.99
2019-04-03T15:21:44.320Z,30.42
2019-04-03T15:24:15.593Z,30.97
2019-04-03T15:26:46.843Z,31.08
2019-04-03T16:39:44.938Z,35.88
2019-04-03T16:42:17.106Z,36.18
2019-04-03T16:44:48.329Z,36.08
2019-04-03T16:47:19.636Z,36.13
2019-04-03T16:49:54.272Z,36.48
2019-04-03T16:52:23.741Z,36.33
2019-04-03T16:54:54.892Z,36.49
2019-04-03T16:57:26.506Z,36.73
2019-04-03T16:59:57.758Z,36.65
2019-04-03T17:02:29.999Z,36.73
2019-04-03T17:05:01.314Z,37.23
2019-04-03T17:07:32.677Z,37.09
2019-04-03T17:10:04.756Z,37.27
2019-04-03T17:12:36.019Z,37.38
2019-04-03T17:15:08.537Z,37.56
2019-04-03T17:17:41.146Z,37.47
2019-04-03T17:20:13.040Z,37.44
2019-04-03T17:22:46.057Z,37.74
2019-04-03T17:25:17.449Z,37.65
2019-04-03T17:27:57.447Z,37.52
2019-04-03T17:30:25.532Z,37.68
2019-04-03T17:32:56.789Z,37.81
2019-04-03T17:35:27.981Z,37.99
2019-04-03T17:38:00.775Z,38.05
2019-04-03T17:40:32.194Z,37.91
2019-04-03T17:43:03.468Z,38.10
2019-04-03T17:45:34.733Z,38.27
2019-04-03T17:48:05.965Z,38.06
2019-04-03T17:50:37.156Z,38.15
2019-04-03T17:53:09.502Z,38.27
2019-04-03T17:55:41.526Z,38.66
2019-04-03T17:58:16.571Z,38.85
2019-04-03T18:00:46.381Z,39.07
2019-04-03T18:03:19.373Z,39.61
2019-04-03T18:05:50.611Z,39.41
2019-04-03T18:08:22.095Z,39.70
2019-04-03T18:10:54.428Z,40.52
2019-04-03T18:13:28.394Z,40.19
2019-04-03T18:15:59.677Z,40.72
2019-04-03T18:18:33.245Z,40.83
2019-04-03T18:21:04.049Z,41.25
2019-04-03T18:23:35.435Z,41.30
2019-04-03T18:26:06.716Z,42.25
2019-04-03T18:28:37.997Z,42.08
2019-04-03T18:31:09.294Z,42.13
2019-04-03T18:33:40.643Z,42.44
2019-04-03T18:36:11.901Z,42.69
2019-04-03T18:38:43.294Z,42.81
2019-04-03T18:41:14.998Z,42.71
2019-04-03T18:43:50.094Z,42.67
2019-04-03T18:46:31.660Z,42.91
2019-04-03T18:48:58.848Z,43.77
2019-04-03T18:51:27.587Z,43.49
2019-04-03T18:53:58.931Z,43.21
2019-04-03T18:56:32.056Z,44.18
2019-04-03T18:59:03.188Z,44.33
2019-04-03T19:01:34.461Z,43.82
2019-04-03T19:04:07.191Z,44.54
2019-04-03T19:06:38.979Z,44.06
2019-04-03T19:09:10.463Z,44.35
2019-04-03T19:11:41.832Z,43.98
2019-04-03T19:14:21.424Z,44.18
2019-04-03T19:16:51.435Z,44.13
2019-04-03T19:19:19.467Z,44.28
